Time;durP1;ratioP1;P1;durP2;ratioP2;P2;SDS_P1;SDS_P2;PMS_P1;PMS_P2;Temp;Humidity;BMP_temperature;BMP_pressure;BME280_temperature;BME280_humidity;BME280_pressure;Samples;Min_cycle;Max_cycle;Signal;HPM_P1;HPM_P2
2023/03/24 00:01:53;;;;;;;5.43;3.20;;;;;;;18.30;55.54;98768.53;5091941;28;20035;-66
2023/03/24 00:04:19;;;;;;;5.72;3.22;;;;;;;18.29;55.25;98768.63;5091622;28;20028;-63
2023/03/24 00:06:47;;;;;;;4.38;3.15;;;;;;;18.26;55.25;98769.69;5090364;28;20028;-63
2023/03/24 00:09:14;;;;;;;4.78;3.22;;;;;;;18.25;55.29;98768.81;5091826;28;20043;-64
2023/03/24 00:11:39;;;;;;;5.25;3.03;;;;;;;18.24;55.66;98767.13;5091775;28;20024;-63
2023/03/24 00:14:05;;;;;;;4.88;2.85;;;;;;;18.23;55.34;98765.44;5095248;28;20062;-65
2023/03/24 00:16:33;;;;;;;4.65;3.10;;;;;;;18.23;55.41;98765.44;5095554;28;20512;-65
2023/03/24 00:18:59;;;;;;;5.60;3.00;;;;;;;18.24;55.37;98761.84;5095075;28;20024;-65
2023/03/24 00:21:25;;;;;;;4.53;3.10;;;;;;;18.27;55.60;98759.97;5094252;28;20066;-62
2023/03/24 00:23:57;;;;;;;4.47;2.97;;;;;;;18.22;55.43;98753.16;5095295;28;20131;-65
2023/03/24 00:26:23;;;;;;;4.88;3.03;;;;;;;18.24;55.53;98763.63;5095406;28;20056;-65
2023/03/24 00:28:50;;;;;;;4.13;2.45;;;;;;;18.21;55.92;98756.75;5095260;28;20028;-65
2023/03/24 00:31:16;;;;;;;4.30;2.70;;;;;;;18.22;55.67;98763.72;5095281;28;20028;-66
2023/03/24 00:33:43;;;;;;;4.72;2.75;;;;;;;18.22;55.48;98757.59;5094988;28;20074;-66
2023/03/24 00:36:10;;;;;;;3.83;2.50;;;;;;;18.20;55.80;98747.13;5095115;28;20093;-65
2023/03/24 00:38:38;;;;;;;4.93;2.72;;;;;;;18.21;55.48;98755.91;5094998;28;20024;-65
2023/03/24 00:41:06;;;;;;;4.30;2.58;;;;;;;18.17;55.93;98765.81;5095292;28;20067;-65
2023/03/24 00:43:32;;;;;;;3.88;2.10;;;;;;;18.16;55.53;98777.28;5094979;28;20396;-65
2023/03/24 00:46:04;;;;;;;4.70;2.58;;;;;;;18.17;55.62;98771.09;5094930;28;20031;-65
2023/03/24 00:48:31;;;;;;;3.53;2.40;;;;;;;18.15;55.73;98787.97;5094448;28;20024;-65
2023/03/24 00:50:56;;;;;;;3.95;2.28;;;;;;;18.15;55.62;98788.81;5094685;28;20036;-65
2023/03/24 00:53:24;;;;;;;4.22;2.50;;;;;;;18.11;55.73;98797.84;5094874;28;20035;-65
2023/03/24 00:55:50;;;;;;;3.47;2.30;;;;;;;18.15;55.91;98804.66;5093601;28;20020;-65
2023/03/24 00:58:18;;;;;;;3.78;2.13;;;;;;;18.14;55.67;98808.22;5094473;28;20458;-65
2023/03/24 01:00:49;;;;;;;4.53;2.45;;;;;;;18.15;55.80;98814.38;5094550;28;20111;-65
2023/03/24 01:03:16;;;;;;;5.10;2.17;;;;;;;18.15;55.53;98815.22;5094452;28;20387;-66
2023/03/24 01:05:46;;;;;;;4.53;2.35;;;;;;;18.16;55.32;98816.91;5094794;28;20051;-65
2023/03/24 01:08:13;;;;;;;4.60;2.33;;;;;;;18.14;55.63;98810.88;5094396;28;20499;-65
2023/03/24 01:10:49;;;;;;;4.30;2.30;;;;;;;18.13;55.68;98817.09;5094484;28;20035;-65
2023/03/24 01:13:16;;;;;;;3.63;2.00;;;;;;;18.14;55.77;98818.78;5094557;28;20055;-65
2023/03/24 01:15:44;;;;;;;4.53;2.17;;;;;;;18.15;55.52;98809.91;5094108;28;20066;-65
2023/03/24 01:18:11;;;;;;;3.35;2.20;;;;;;;18.13;55.84;98813.59;5094365;28;20028;-65
2023/03/24 01:20:39;;;;;;;4.43;2.60;;;;;;;18.14;55.77;98812.66;5094333;28;20027;-65
2023/03/24 01:23:06;;;;;;;3.53;2.17;;;;;;;18.13;55.64;98806.53;5094357;28;20154;-65
2023/03/24 01:25:32;;;;;;;3.65;2.05;;;;;;;18.14;55.64;98810.00;5093098;28;20048;-65
2023/03/24 01:27:58;;;;;;;2.92;2.20;;;;;;;18.11;55.69;98813.69;5094085;28;20054;-66
2023/03/24 01:30:26;;;;;;;3.40;2.25;;;;;;;18.11;55.86;98818.97;5093642;28;20058;-66
2023/03/24 01:32:52;;;;;;;3.20;2.10;;;;;;;18.11;55.90;98816.31;5094046;28;20069;-64
2023/03/24 01:35:18;;;;;;;4.15;1.95;;;;;;;18.13;55.83;98810.97;5094120;28;20016;-65
2023/03/24 01:37:44;;;;;;;3.13;1.70;;;;;;;18.10;55.69;98817.25;5094099;28;20028;-65
2023/03/24 01:40:17;;;;;;;2.72;1.92;;;;;;;18.08;55.80;98824.44;5094080;28;20028;-65
2023/03/24 01:42:42;;;;;;;3.08;1.80;;;;;;;18.07;55.85;98838.59;5094009;28;20039;-66
2023/03/24 01:45:42;;;;;;;3.45;2.20;;;;;;;18.07;55.73;98849.97;5093418;28;20434;-65
2023/03/24 01:48:19;;;;;;;3.15;2.20;;;;;;;18.06;56.07;98858.84;5093627;28;20039;-65
2023/03/24 01:50:51;;;;;;;3.33;1.58;;;;;;;18.06;55.59;98871.22;5093550;28;20052;-65
2023/03/24 01:53:17;;;;;;;3.80;2.28;;;;;;;18.05;55.67;98883.50;5093706;28;20044;-64
2023/03/24 01:55:46;;;;;;;3.38;1.90;;;;;;;18.06;55.47;98893.16;5092391;28;20102;-63
2023/03/24 01:58:11;;;;;;;3.85;2.05;;;;;;;18.07;55.61;98888.75;5093504;28;20017;-63
2023/03/24 02:00:38;;;;;;;3.20;1.80;;;;;;;18.07;55.54;98880.81;5093139;28;20026;-65
2023/03/24 02:03:13;;;;;;;3.85;2.13;;;;;;;18.06;55.67;98879.97;5093482;28;20065;-65
2023/03/24 02:05:43;;;;;;;3.53;1.67;;;;;;;18.07;55.78;98870.25;5093526;28;20106;-65
2023/03/24 02:08:30;;;;;;;2.53;1.67;;;;;;;18.06;55.67;98863.28;5093248;28;20031;-65
2023/03/24 02:10:57;;;;;;;2.75;1.80;;;;;;;18.04;55.77;98867.75;5093339;28;20450;-65
2023/03/24 02:13:23;;;;;;;3.38;2.10;;;;;;;18.05;55.62;98857.13;5093371;28;20020;-65
2023/03/24 02:16:01;;;;;;;3.00;1.98;;;;;;;18.04;55.50;98833.44;5093255;28;20073;-65
2023/03/24 02:18:55;;;;;;;2.92;1.70;;;;;;;18.01;55.56;98828.34;5093187;28;20032;-63
2023/03/24 02:21:41;;;;;;;2.65;1.77;;;;;;;18.02;55.55;98808.94;5092976;28;20027;-63
2023/03/24 02:24:48;;;;;;;2.67;1.77;;;;;;;18.03;55.82;98800.06;5093195;28;20064;-65
2023/03/24 02:27:22;;;;;;;3.55;1.83;;;;;;;18.02;55.41;98793.91;5050482;28;20116;-65
2023/03/24 02:30:24;;;;;;;3.10;1.88;;;;;;;18.03;55.70;98774.53;5050102;28;20091;-65
2023/03/24 02:33:20;;;;;;;2.55;1.73;;;;;;;18.02;55.45;98785.16;5050425;28;20037;-65
2023/03/24 02:36:06;;;;;;;2.85;1.90;;;;;;;18.00;55.52;98779.97;5050226;28;20025;-65
2023/03/24 02:38:35;;;;;;;;;;;;;;;18.02;55.48;98772.81;5050968;28;20091;-65
2023/03/24 02:41:22;;;;;;;3.63;1.67;;;;;;;18.03;55.47;98790.38;5050265;28;19912;-65
2023/03/24 02:43:56;;;;;;;3.30;1.77;;;;;;;18.02;55.36;98779.88;5049968;28;20040;-65
2023/03/24 02:46:46;;;;;;;2.58;1.48;;;;;;;18.02;55.66;98798.38;5050291;28;20029;-65
2023/03/24 02:49:39;;;;;;;2.58;1.52;;;;;;;18.05;55.25;98798.16;5050222;28;20041;-66
2023/03/24 02:52:45;;;;;;;2.47;1.58;;;;;;;18.04;55.56;98796.47;5049993;28;20049;-65
2023/03/24 02:55:20;;;;;;;2.50;1.45;;;;;;;18.02;55.41;98798.38;5049599;28;20045;-65
2023/03/24 02:57:51;;;;;;;3.47;1.75;;;;;;;18.02;55.40;98801.00;5049590;28;20416;-65
2023/03/24 03:00:23;;;;;;;2.72;1.60;;;;;;;18.04;55.48;98809.69;5050072;28;20052;-65
2023/03/24 03:02:58;;;;;;;2.58;1.60;;;;;;;17.98;55.58;98814.38;5055170;28;20058;-66
2023/03/24 03:05:33;;;;;;;2.77;1.60;;;;;;;18.00;55.26;98821.38;5072352;28;20021;-65
2023/03/24 03:08:02;;;;;;;2.78;1.67;;;;;;;18.02;55.52;98819.50;5072121;28;20020;-65
2023/03/24 03:10:35;;;;;;;3.38;1.90;;;;;;;18.01;55.59;98817.78;5072161;28;20028;-64
2023/03/24 03:13:09;;;;;;;2.80;1.67;;;;;;;17.99;55.16;98820.50;5071921;28;20070;-65
2023/03/24 03:15:41;;;;;;;2.67;1.60;;;;;;;17.98;55.60;98819.66;5072123;28;20025;-65
2023/03/24 03:18:16;;;;;;;2.83;1.60;;;;;;;17.98;55.31;98809.09;5071971;28;20024;-65
2023/03/24 03:20:49;;;;;;;2.58;1.77;;;;;;;17.98;55.43;98809.09;5072227;28;20027;-66
2023/03/24 03:23:18;;;;;;;2.92;1.75;;;;;;;17.97;55.30;98812.69;5072223;28;20554;-65
2023/03/24 03:25:49;;;;;;;2.25;1.35;;;;;;;17.99;55.57;98820.50;5072082;28;20108;-65
2023/03/24 03:28:20;;;;;;;3.25;1.92;;;;;;;17.98;55.33;98821.47;5071859;28;20028;-66
2023/03/24 03:30:52;;;;;;;3.10;1.50;;;;;;;17.95;55.51;98819.00;5072029;28;20032;-66
2023/03/24 03:33:25;;;;;;;3.03;1.50;;;;;;;17.95;55.49;98817.22;5072085;28;20023;-65
2023/03/24 03:35:57;;;;;;;2.67;1.60;;;;;;;17.97;55.29;98825.88;5071761;28;20021;-65
2023/03/24 03:38:26;;;;;;;3.53;1.60;;;;;;;17.98;55.24;98832.03;5072074;28;20381;-66
2023/03/24 03:40:54;;;;;;;2.30;1.42;;;;;;;17.97;55.30;98833.78;5071360;28;20031;-66
2023/03/24 03:43:20;;;;;;;2.38;1.30;;;;;;;17.98;55.16;98832.84;5071931;28;20020;-65
2023/03/24 03:45:46;;;;;;;2.50;1.27;;;;;;;17.98;55.47;98835.50;5071866;28;20040;-64
2023/03/24 03:48:12;;;;;;;1.40;1.10;;;;;;;17.94;55.36;98826.06;5073907;28;20024;-65
2023/03/24 03:50:37;;;;;;;3.08;1.65;;;;;;;17.94;55.47;98825.22;5075666;28;20048;-64
2023/03/24 03:53:07;;;;;;;2.95;1.70;;;;;;;17.93;55.34;98820.88;5075810;28;20251;-64
2023/03/24 03:55:34;;;;;;;3.60;1.65;;;;;;;17.92;55.55;98827.94;5074100;28;20107;-65
2023/03/24 03:58:00;;;;;;;2.70;1.55;;;;;;;17.93;55.50;98821.72;5092237;28;20499;-64
2023/03/24 04:00:27;;;;;;;3.58;1.63;;;;;;;17.91;55.31;98823.59;5095856;28;20553;-65
2023/03/24 04:03:29;;;;;;;2.95;1.40;;;;;;;17.91;55.74;98828.88;5095973;28;20044;-65
2023/03/24 04:06:03;;;;;;;3.30;1.60;;;;;;;17.90;55.78;98844.78;5095860;28;20050;-65
2023/03/24 04:09:17;;;;;;;2.83;1.48;;;;;;;17.90;55.66;98853.56;5095664;28;20453;-65
2023/03/24 04:11:57;;;;;;;2.55;1.55;;;;;;;17.96;55.33;98847.94;5052708;28;20087;-64
2023/03/24 04:14:29;;;;;;;2.55;1.35;;;;;;;17.95;55.28;98845.38;5053059;28;20037;-65
2023/03/24 04:17:15;;;;;;;3.15;1.52;;;;;;;17.97;55.49;98856.72;5053157;28;20041;-65
2023/03/24 04:19:59;;;;;;;1.92;1.30;;;;;;;17.93;55.51;98848.09;5052870;28;20091;-65
2023/03/24 04:22:49;;;;;;;1.88;1.50;;;;;;;17.93;55.34;98853.38;5053045;28;20037;-65
2023/03/24 04:25:48;;;;;;;2.88;1.35;;;;;;;17.94;55.25;98859.53;5052518;28;20043;-65
2023/03/24 04:28:25;;;;;;;2.15;1.45;;;;;;;17.92;55.55;98867.53;5052846;28;20029;-65
2023/03/24 04:31:06;;;;;;;2.30;1.40;;;;;;;17.91;55.42;98871.09;5052729;28;20504;-65
2023/03/24 04:33:44;;;;;;;2.75;1.50;;;;;;;17.88;55.33;98866.03;5052815;28;20103;-64
2023/03/24 04:36:21;;;;;;;2.83;1.70;;;;;;;17.87;55.36;98879.31;5052696;28;20041;-64
2023/03/24 04:38:53;;;;;;;2.17;1.33;;;;;;;17.90;55.56;98885.25;5052286;28;20049;-65
2023/03/24 04:41:21;;;;;;;2.40;1.50;;;;;;;17.89;55.45;98891.47;5052554;28;20485;-65
2023/03/24 04:43:47;;;;;;;2.67;1.50;;;;;;;17.88;55.54;98881.84;5052609;28;20039;-64
2023/03/24 04:46:16;;;;;;;2.60;1.60;;;;;;;17.91;55.34;98886.13;5052327;28;20029;-66
2023/03/24 04:48:49;;;;;;;2.30;1.27;;;;;;;17.91;55.24;98889.59;5073504;28;20043;-64
2023/03/24 04:51:17;;;;;;;1.92;1.38;;;;;;;17.89;55.41;98894.13;5094736;28;20044;-65
2023/03/24 04:53:43;;;;;;;2.28;1.40;;;;;;;17.88;55.60;98892.41;5094735;28;20023;-65
2023/03/24 04:56:53;;;;;;;2.25;1.50;;;;;;;17.91;55.45;98905.44;5094555;28;20020;-65
2023/03/24 04:59:20;;;;;;;2.22;1.50;;;;;;;17.88;55.31;98902.97;5092599;28;20071;-65
2023/03/24 05:01:48;;;;;;;3.30;1.98;;;;;;;17.91;55.43;98892.22;5094657;28;20021;-64
2023/03/24 05:04:18;;;;;;;1.67;1.20;;;;;;;17.91;55.29;98892.22;5094639;28;20055;-65
2023/03/24 05:06:45;;;;;;;2.88;1.48;;;;;;;17.89;55.27;98902.03;5093416;28;20141;-64
2023/03/24 05:09:22;;;;;;;2.70;1.40;;;;;;;17.89;55.33;98894.13;5094088;28;20516;-65
2023/03/24 05:11:49;;;;;;;2.83;1.60;;;;;;;17.90;55.29;98909.00;5094540;28;20495;-64
2023/03/24 05:14:15;;;;;;;2.17;1.48;;;;;;;17.91;55.46;98918.63;5093126;28;20032;-65
2023/03/24 05:16:41;;;;;;;3.10;1.70;;;;;;;17.93;55.37;98924.66;5094413;28;20023;-65
2023/03/24 05:19:06;;;;;;;1.65;1.20;;;;;;;17.94;55.05;98931.66;5094472;28;20034;-65
2023/03/24 05:21:32;;;;;;;2.58;1.50;;;;;;;17.93;55.15;98931.75;5094348;28;20028;-64
2023/03/24 05:23:58;;;;;;;2.33;1.25;;;;;;;17.92;55.31;98930.88;5094109;28;20028;-64
2023/03/24 05:26:25;;;;;;;2.00;1.23;;;;;;;17.91;54.97;98937.09;5094291;28;20430;-65
2023/03/24 05:28:51;;;;;;;1.90;1.30;;;;;;;17.91;55.31;98938.91;5094310;28;20081;-64
2023/03/24 05:31:16;;;;;;;2.35;1.35;;;;;;;17.92;55.31;98936.16;5094229;28;20119;-64
2023/03/24 05:33:42;;;;;;;2.95;1.48;;;;;;;17.95;55.17;98935.13;5094307;28;20035;-64
2023/03/24 05:36:07;;;;;;;2.22;1.63;;;;;;;17.96;54.96;98939.47;5094115;28;20185;-65
2023/03/24 05:38:33;;;;;;;2.00;1.38;;;;;;;17.96;54.90;98952.66;5092474;28;20031;-65
2023/03/24 05:41:00;;;;;;;3.28;1.40;;;;;;;17.96;54.84;98953.53;5094035;28;20047;-65
2023/03/24 05:43:26;;;;;;;2.17;1.40;;;;;;;17.97;55.06;98955.22;5093957;28;20476;-64
2023/03/24 05:45:51;;;;;;;2.42;1.45;;;;;;;17.95;54.84;98957.13;5093745;28;20020;-65
2023/03/24 05:48:17;;;;;;;2.47;1.45;;;;;;;17.95;54.83;98962.41;5093981;28;20089;-65
2023/03/24 05:50:42;;;;;;;2.33;1.38;;;;;;;17.95;55.01;98967.66;5093521;28;20102;-65
2023/03/24 05:53:08;;;;;;;2.22;1.27;;;;;;;17.94;55.19;98965.13;5093438;28;20442;-64
2023/03/24 05:55:34;;;;;;;2.80;1.60;;;;;;;17.92;55.10;98973.09;5093841;28;20052;-65
2023/03/24 05:58:00;;;;;;;2.72;1.70;;;;;;;17.94;55.09;98984.47;5093476;28;20020;-64
2023/03/24 06:00:29;;;;;;;2.35;1.50;;;;;;;17.96;54.83;98995.78;5093642;28;20074;-65
2023/03/24 06:02:55;;;;;;;2.22;1.48;;;;;;;17.95;54.94;98998.47;5093527;28;20048;-65
2023/03/24 06:05:22;;;;;;;2.40;1.67;;;;;;;17.99;54.84;98989.47;5093418;28;20460;-65
2023/03/24 06:07:47;;;;;;;2.00;1.40;;;;;;;17.97;54.69;98997.47;5093133;28;20414;-64
2023/03/24 06:10:13;;;;;;;2.38;1.30;;;;;;;17.94;54.85;98997.66;5092601;28;20035;-65
2023/03/24 06:12:39;;;;;;;2.08;1.40;;;;;;;17.97;54.90;98997.47;5093459;28;20020;-65
2023/03/24 06:15:06;;;;;;;3.42;1.38;;;;;;;18.00;54.63;99003.53;5093198;28;20027;-65
2023/03/24 06:17:32;;;;;;;2.15;1.65;;;;;;;17.96;54.97;98995.78;5093397;28;20027;-64
2023/03/24 06:20:04;;;;;;;2.38;1.50;;;;;;;17.98;54.62;98996.53;5092778;28;20491;-64
2023/03/24 06:22:33;;;;;;;2.13;1.33;;;;;;;17.98;54.68;99004.44;5093215;28;20104;-64
2023/03/24 06:24:59;;;;;;;2.75;1.67;;;;;;;17.96;55.00;99011.59;5093168;28;20533;-65
2023/03/24 06:27:29;;;;;;;2.47;1.35;;;;;;;17.95;54.83;99020.47;5093188;28;20024;-65
2023/03/24 06:29:58;;;;;;;3.03;1.65;;;;;;;17.96;55.08;99027.44;5093075;28;20046;-65
2023/03/24 06:32:25;;;;;;;2.30;1.40;;;;;;;17.96;54.70;99010.75;5093103;28;20106;-65
2023/03/24 06:34:50;;;;;;;2.45;1.20;;;;;;;17.97;54.76;99020.38;5092607;28;20658;-65
2023/03/24 06:37:16;;;;;;;2.17;1.38;;;;;;;17.98;54.57;99033.47;5092985;28;20099;-65
2023/03/24 06:39:41;;;;;;;2.75;1.50;;;;;;;17.98;54.89;99040.56;5092726;28;20434;-65
2023/03/24 06:42:07;;;;;;;2.63;1.50;;;;;;;18.00;54.89;99037.84;5091769;28;20435;-65
2023/03/24 06:44:32;;;;;;;2.60;1.45;;;;;;;18.02;54.89;99057.09;5092736;28;20020;-65
2023/03/24 06:46:58;;;;;;;2.78;1.50;;;;;;;18.01;54.69;99050.09;5092884;28;20395;-64
2023/03/24 06:49:23;;;;;;;2.30;1.48;;;;;;;17.96;54.91;99058.25;5092324;28;20468;-65
2023/03/24 06:51:49;;;;;;;3.13;1.38;;;;;;;17.96;54.98;99056.47;5092467;28;20044;-65
2023/03/24 06:54:15;;;;;;;2.72;1.52;;;;;;;17.95;54.80;99061.84;5092739;28;20042;-64
2023/03/24 06:56:41;;;;;;;2.55;1.50;;;;;;;17.92;55.00;99073.41;5092267;28;20031;-64
2023/03/24 06:59:07;;;;;;;2.85;1.80;;;;;;;17.94;54.85;99068.94;5092557;28;20012;-65
2023/03/24 07:01:37;;;;;;;3.65;1.63;;;;;;;17.95;55.17;99078.53;5092559;28;20024;-64
2023/03/24 07:04:03;;;;;;;2.70;1.52;;;;;;;17.96;55.03;99074.97;5090753;28;20024;-65
2023/03/24 07:06:29;;;;;;;3.38;1.50;;;;;;;18.00;54.97;99074.81;5092461;28;20024;-64
2023/03/24 07:08:55;;;;;;;3.80;1.90;;;;;;;18.00;54.73;99075.66;5092797;28;20036;-65
2023/03/24 07:11:21;;;;;;;2.80;1.65;;;;;;;18.01;54.83;99077.34;5091695;28;20028;-64
2023/03/24 07:13:46;;;;;;;2.58;1.45;;;;;;;18.02;54.87;99086.97;5092737;28;20023;-65
2023/03/24 07:33:56;;;;;;;4.20;2.03;;;;;;;17.85;55.28;99093.16;5130807;27;20404;-64
2023/03/24 07:36:22;;;;;;;4.60;2.00;;;;;;;17.89;55.34;99089.44;5130610;27;20042;-64
2023/03/24 07:38:47;;;;;;;5.90;2.47;;;;;;;17.94;55.29;99094.47;5130816;27;20030;-64
2023/03/24 07:41:13;;;;;;;5.32;2.28;;;;;;;17.95;55.55;99096.16;5130202;27;20028;-65
2023/03/24 07:43:38;;;;;;;4.72;2.78;;;;;;;18.00;55.29;99091.47;5129175;27;20065;-64
2023/03/24 07:46:04;;;;;;;5.53;2.50;;;;;;;18.01;55.14;99101.09;5130505;27;20076;-62
2023/03/24 07:48:29;;;;;;;4.30;2.45;;;;;;;18.01;55.31;99114.31;5129228;28;20051;-62
2023/03/24 07:50:55;;;;;;;4.90;2.30;;;;;;;18.06;55.34;99116.75;5130640;27;20035;-62
2023/03/24 07:53:20;;;;;;;5.40;2.53;;;;;;;18.07;55.27;99121.09;5130431;27;20034;-61
2023/03/24 07:55:46;;;;;;;3.80;2.08;;;;;;;18.07;55.33;99121.09;5129671;27;20469;-62
2023/03/24 07:58:12;;;;;;;4.10;2.40;;;;;;;18.10;54.96;99136.75;5130254;27;20487;-62
2023/03/24 08:00:37;;;;;;;5.68;2.50;;;;;;;18.10;55.41;99139.38;5130228;27;20038;-62
2023/03/24 08:03:03;;;;;;;4.75;2.67;;;;;;;18.11;55.35;99146.38;5129003;28;20469;-62
2023/03/24 08:05:29;;;;;;;4.32;2.60;;;;;;;18.10;55.15;99136.75;5130176;27;20050;-62
2023/03/24 08:07:56;;;;;;;4.32;2.70;;;;;;;18.14;55.11;99146.22;5130136;27;20473;-62
2023/03/24 08:10:28;;;;;;;5.82;2.60;;;;;;;18.17;55.18;99140.78;5129746;27;20059;-62
2023/03/24 08:12:54;;;;;;;4.65;2.17;;;;;;;18.14;55.33;99138.28;5130038;27;20035;-62
2023/03/24 08:15:20;;;;;;;4.60;2.67;;;;;;;18.19;54.89;99138.03;5130114;27;20027;-63
2023/03/24 08:17:46;;;;;;;4.15;2.45;;;;;;;18.19;55.02;99136.25;5130196;27;20027;-62
2023/03/24 08:20:13;;;;;;;5.30;2.47;;;;;;;18.17;55.12;99130.22;5130003;27;20019;-62
2023/03/24 08:22:41;;;;;;;3.67;2.67;;;;;;;18.19;55.05;99144.19;5128489;27;20108;-62
2023/03/24 08:25:08;;;;;;;4.22;2.35;;;;;;;18.20;55.00;99137.97;5129504;27;20027;-62
2023/03/24 08:27:36;;;;;;;4.13;2.40;;;;;;;18.23;54.86;99140.44;5129531;27;20107;-62
2023/03/24 08:30:03;;;;;;;4.35;2.30;;;;;;;18.25;54.75;99138.56;5129727;27;20027;-62
2023/03/24 08:32:29;;;;;;;3.20;2.20;;;;;;;18.24;54.78;99147.44;5129603;27;20057;-62
2023/03/24 08:34:56;;;;;;;3.47;2.13;;;;;;;18.24;54.86;99144.78;5115955;28;20024;-62
2023/03/24 08:37:22;;;;;;;4.57;2.47;;;;;;;18.25;54.90;99150.91;5116046;28;20059;-62
2023/03/24 08:39:47;;;;;;;4.03;2.33;;;;;;;18.29;54.74;99148.94;5115782;28;20062;-62
2023/03/24 08:42:13;;;;;;;4.05;2.50;;;;;;;18.27;54.90;99151.69;5115876;28;20032;-62
2023/03/24 08:44:38;;;;;;;3.70;2.20;;;;;;;18.27;55.26;99151.69;5115815;28;20030;-62
2023/03/24 08:47:03;;;;;;;3.60;2.60;;;;;;;18.28;54.83;99153.41;5116078;28;20018;-62
2023/03/24 08:49:29;;;;;;;4.15;2.83;;;;;;;18.31;55.06;99155.03;5115900;28;20016;-62
2023/03/24 08:51:54;;;;;;;3.33;2.47;;;;;;;18.31;55.10;99147.09;5115751;28;20015;-61
2023/03/24 08:54:22;;;;;;;3.65;2.25;;;;;;;18.33;54.69;99161.06;5115262;28;20102;-62
2023/03/24 08:56:47;;;;;;;4.07;2.65;;;;;;;18.33;54.90;99161.06;5115567;28;20500;-62
2023/03/24 08:59:13;;;;;;;4.13;2.55;;;;;;;18.37;54.77;99173.16;5115479;28;20110;-62
2023/03/24 09:01:39;;;;;;;4.50;2.95;;;;;;;18.37;55.12;99170.53;5115337;28;20084;-62
2023/03/24 09:04:05;;;;;;;4.43;2.35;;;;;;;18.38;54.65;99185.44;5115578;28;20058;-62
2023/03/24 09:06:31;;;;;;;4.32;2.60;;;;;;;18.40;54.66;99190.66;5115339;28;20055;-62
2023/03/24 09:08:57;;;;;;;5.10;2.78;;;;;;;18.41;54.91;99200.28;5115043;28;20074;-62
2023/03/24 09:11:22;;;;;;;4.25;2.47;;;;;;;18.41;54.78;99203.78;5115347;27;20524;-62
2023/03/24 09:13:48;;;;;;;4.75;2.70;;;;;;;18.43;54.78;99216.88;5115308;28;20080;-62
2023/03/24 09:16:14;;;;;;;4.45;2.42;;;;;;;18.42;54.67;99229.25;5115195;28;20380;-62
2023/03/24 09:18:40;;;;;;;3.65;2.55;;;;;;;18.45;54.91;99244.09;5115037;28;20032;-62
2023/03/24 09:21:06;;;;;;;3.22;2.25;;;;;;;18.47;54.53;99247.50;5115103;28;20030;-62
2023/03/24 09:23:33;;;;;;;5.45;2.63;;;;;;;18.45;54.51;99260.78;5114680;28;20042;-62
2023/03/24 09:25:58;;;;;;;3.55;2.40;;;;;;;18.47;54.88;99258.94;5115006;28;20031;-62
2023/03/24 09:28:24;;;;;;;6.00;3.13;;;;;;;18.48;54.46;99265.91;5114818;28;20028;-62
2023/03/24 09:30:54;;;;;;;4.90;2.70;;;;;;;18.49;54.61;99259.69;5114996;28;20020;-62
2023/03/24 09:33:20;;;;;;;4.03;2.60;;;;;;;18.50;54.47;99268.47;5114560;28;20056;-62
2023/03/24 09:35:52;;;;;;;3.58;2.35;;;;;;;18.50;54.44;99258.75;5114792;28;20433;-61
2023/03/24 09:38:18;;;;;;;3.85;2.50;;;;;;;18.50;54.52;99264.03;5114513;28;20361;-61
2023/03/24 09:40:44;;;;;;;4.13;2.78;;;;;;;18.51;54.76;99271.00;5114763;27;20088;-62
2023/03/24 09:43:29;;;;;;;4.07;2.63;;;;;;;18.51;54.67;99268.38;5114616;28;20027;-62
2023/03/24 09:45:57;;;;;;;4.32;2.80;;;;;;;18.53;54.45;99278.88;5113446;28;20112;-61
2023/03/24 09:48:43;;;;;;;4.18;2.83;;;;;;;18.52;54.68;99267.47;5114494;28;20030;-62
2023/03/24 09:51:17;;;;;;;6.10;3.20;;;;;;;18.52;54.63;99259.53;5114508;28;20110;-62
2023/03/24 09:54:31;;;;;;;5.47;2.97;;;;;;;18.55;54.75;99255.00;5114084;28;20051;-62
2023/03/24 09:56:58;;;;;;;4.30;2.70;;;;;;;18.56;54.69;99269.94;5114396;27;20066;-62
2023/03/24 09:59:38;;;;;;;4.25;2.70;;;;;;;18.56;54.87;99277.84;5114394;28;20027;-61
2023/03/24 10:02:17;;;;;;;4.95;2.75;;;;;;;18.57;54.62;99276.91;5114403;28;20112;-62
2023/03/24 10:04:42;;;;;;;4.85;2.97;;;;;;;18.58;54.80;99275.97;5114150;28;20054;-62
2023/03/24 10:07:17;;;;;;;4.88;2.65;;;;;;;18.60;54.51;99279.41;5114062;28;20108;-62
2023/03/24 10:09:47;;;;;;;4.95;2.83;;;;;;;18.61;54.48;99283.75;5114235;28;20385;-62
2023/03/24 10:12:40;;;;;;;4.00;3.00;;;;;;;18.63;54.43;99292.44;5114237;27;20505;-62
2023/03/24 10:15:06;;;;;;;4.72;3.05;;;;;;;18.64;54.46;99286.22;5114156;28;20473;-62
2023/03/24 10:17:43;;;;;;;5.38;3.15;;;;;;;18.65;54.82;99282.66;5114182;28;20020;-62
2023/03/24 10:20:11;;;;;;;4.50;3.00;;;;;;;18.66;54.58;99284.34;5114125;28;20019;-62
2023/03/24 10:22:58;;;;;;;4.50;2.95;;;;;;;18.67;54.51;99280.78;5113532;28;20076;-61
2023/03/24 10:25:32;;;;;;;4.75;3.22;;;;;;;18.68;54.57;99279.81;5114096;28;20049;-62
2023/03/24 10:28:09;;;;;;;4.57;3.20;;;;;;;18.70;54.66;99285.03;5113640;28;20069;-62
2023/03/24 10:30:41;;;;;;;4.75;3.15;;;;;;;18.71;54.63;99287.59;5113792;28;20016;-62
2023/03/24 10:33:09;;;;;;;4.55;3.00;;;;;;;18.72;54.72;99289.31;5113357;28;20432;-62
2023/03/24 10:35:45;;;;;;;5.07;3.40;;;;;;;18.72;54.38;99294.59;5112221;28;20023;-62
2023/03/24 10:38:17;;;;;;;5.40;3.20;;;;;;;18.74;54.82;99291.88;5113718;28;20529;-62
2023/03/24 10:40:44;;;;;;;4.43;2.88;;;;;;;18.75;54.80;99277.72;5113667;28;20035;-62
2023/03/24 10:43:10;;;;;;;4.93;3.10;;;;;;;18.76;54.62;99287.34;5113515;28;20031;-62
2023/03/24 10:45:40;;;;;;;4.70;3.47;;;;;;;18.76;54.81;99285.56;5113406;28;20405;-62
2023/03/24 10:48:08;;;;;;;4.32;3.47;;;;;;;18.77;54.74;99292.56;5113508;28;20023;-62
2023/03/24 10:50:34;;;;;;;4.30;2.83;;;;;;;18.77;54.86;99297.84;5113146;28;20034;-62
2023/03/24 10:53:08;;;;;;;4.70;3.03;;;;;;;18.78;54.64;99286.34;5113444;28;20036;-62
2023/03/24 10:55:38;;;;;;;5.35;3.10;;;;;;;18.79;54.87;99295.97;5113287;28;20038;-62
2023/03/24 10:58:16;;;;;;;5.00;3.50;;;;;;;18.82;54.70;99302.00;5113043;28;20430;-62
2023/03/24 11:00:44;;;;;;;5.53;3.15;;;;;;;18.83;54.51;99306.38;5113389;28;20023;-62
2023/03/24 11:03:30;;;;;;;3.85;2.83;;;;;;;18.83;54.64;99306.38;5113146;28;20027;-62
2023/03/24 11:06:01;;;;;;;4.85;2.97;;;;;;;18.84;54.44;99302.78;5112983;28;20076;-62
2023/03/24 11:08:27;;;;;;;4.95;3.28;;;;;;;18.86;54.46;99304.41;5113225;28;20042;-62
2023/03/24 11:10:54;;;;;;;4.35;3.13;;;;;;;18.87;54.71;99298.19;5113103;27;20032;-61
2023/03/24 11:13:31;;;;;;;4.13;2.78;;;;;;;18.88;54.42;99306.97;5113154;28;20019;-62
2023/03/24 11:16:09;;;;;;;4.72;3.13;;;;;;;18.88;54.67;99320.19;5113112;27;20031;-62
2023/03/24 11:18:35;;;;;;;5.57;3.50;;;;;;;18.90;54.50;99315.69;5112714;28;20020;-62
2023/03/24 11:21:03;;;;;;;4.97;3.17;;;;;;;18.90;54.58;99313.03;5113082;28;20026;-62
2023/03/24 11:23:30;;;;;;;4.65;3.15;;;;;;;18.91;54.65;99320.03;5113052;28;20519;-62
2023/03/24 11:26:21;;;;;;;4.45;2.88;;;;;;;18.93;54.69;99334.00;5112845;28;20059;-62
2023/03/24 11:28:55;;;;;;;3.78;2.65;;;;;;;18.94;54.46;99335.75;5112768;28;20031;-62
2023/03/24 11:31:29;;;;;;;4.50;3.03;;;;;;;18.95;54.60;99337.44;5113013;28;20039;-62
2023/03/24 11:33:59;;;;;;;4.43;2.67;;;;;;;18.97;54.40;99335.56;5112544;28;20043;-62
2023/03/24 11:36:33;;;;;;;3.75;2.60;;;;;;;18.97;54.68;99340.84;5113063;28;20028;-62
2023/03/24 11:39:00;;;;;;;4.53;2.80;;;;;;;18.99;54.49;99338.13;5112899;28;20024;-62
2023/03/24 11:41:26;;;;;;;4.60;2.78;;;;;;;18.99;54.44;99343.41;5112874;28;20058;-62
2023/03/24 11:44:14;;;;;;;4.30;3.05;;;;;;;19.00;54.55;99356.56;5112867;28;20027;-62
2023/03/24 11:46:42;;;;;;;3.90;2.72;;;;;;;19.00;54.73;99348.63;5102842;28;20044;-62
2023/03/24 11:49:10;;;;;;;4.60;2.83;;;;;;;19.02;54.62;99354.66;5112450;28;20020;-62
2023/03/24 11:51:40;;;;;;;4.53;2.97;;;;;;;19.04;54.70;99346.69;5112847;28;20020;-62
2023/03/24 11:54:13;;;;;;;3.45;2.63;;;;;;;19.04;54.53;99358.09;5112682;28;20380;-62
2023/03/24 11:56:42;;;;;;;3.90;2.70;;;;;;;19.06;54.75;99358.03;5112701;28;20028;-62
2023/03/24 11:59:36;;;;;;;5.25;3.00;;;;;;;19.06;54.45;99360.69;5112672;28;20485;-62
2023/03/24 12:02:07;;;;;;;4.50;2.92;;;;;;;19.09;54.80;99357.00;5112191;28;20024;-62
2023/03/24 12:04:48;;;;;;;4.28;2.72;;;;;;;19.09;54.62;99359.66;5112546;28;20031;-62
2023/03/24 12:07:40;;;;;;;4.00;2.40;;;;;;;19.10;54.77;99366.66;5112532;28;20024;-61
2023/03/24 12:10:18;;;;;;;4.45;2.63;;;;;;;19.11;54.71;99365.69;5115844;28;20101;-62